Terminal Aerodrome Forecast
Issued by NWS Twin Cities, MN

Home | Current Version | Previous Version | Graphics & Text | Print | Product List | Glossary On
Versions: 1 2 3 4 5 6 7 8 9 10 11 12 13 14 15 16 17 18 19 20 21 22 23 24 25 26 27 28
000
FTUS43 KMPX 271700
TAFMSP
TAF
KMSP 271739Z 2718/2824 31011KT P6SM SKC
      TEMPO 2718/2719 BKN017
     FM280200 24006KT P6SM FEW250
     FM281400 34006KT P6SM SCT020 BKN035
     FM282100 35007KT P6SM OVC015=

USA.gov is the U.S. government's official web portal to all federal, state and local government web resources and services.